KFFA/FFA METAR and TAF weather

Enter ICAO airport designator
Station Type Date Time Source
KFFA METAR 2022/11/26 10:15 UTC NOAA

KFFA 261015Z AUTO 35009G19KT 320V020 10SM CLR 11/01 A3012 RMK AO2 T01050014


Station Type Date Time Source
KFFA Decoded METAR 2022/11/26 10:15 UTC NOAA

Kill Devil Hills, First Flight Airport, NC, United States (KFFA) 36-01N 075-40W
Nov 26, 2022 - 05:15 AM EST / 2022.11.26 1015 UTC
Wind: from the N (350 degrees) at 10 MPH (9 KT) gusting to 22 MPH (19 KT) (direction variable):0
Visibility: 10 mile(s):0
Sky conditions: clear
Temperature: 50.9 F (10.5 C)
Dew Point: 34.5 F (1.4 C)
Relative Humidity: 53%
Pressure (altimeter): 30.12 in. Hg (1019 hPa)
ob: KFFA 261015Z AUTO 35009G19KT 320V020 10SM CLR 11/01 A3012 RMK AO2 T01050014
cycle: 10

Station Type Date Time Source
KFFA TAF UTC NOAA

Error!

Example: see airport list